createdAt,value
2022-10-18T00:01:56.027Z,10.07
2022-10-18T00:04:23.273Z,9.98
2022-10-18T00:06:50.412Z,10.77
2022-10-18T00:09:17.719Z,9.80
2022-10-18T00:11:45.319Z,10.02
2022-10-18T00:14:12.490Z,9.57
2022-10-18T00:16:39.625Z,10.05
2022-10-18T00:19:06.775Z,10.20
2022-10-18T00:21:33.954Z,10.15
2022-10-18T00:24:01.239Z,9.73
2022-10-18T00:26:29.484Z,8.95
2022-10-18T00:28:59.762Z,9.65
2022-10-18T00:31:28.214Z,10.40
2022-10-18T00:33:57.276Z,10.00
2022-10-18T00:36:25.440Z,9.60
2022-10-18T00:38:53.221Z,11.48
2022-10-18T00:41:21.842Z,8.75
2022-10-18T00:44:07.954Z,10.30
2022-10-18T00:46:36.747Z,9.52
2022-10-18T00:49:24.429Z,8.52
2022-10-18T00:51:57.448Z,9.98
2022-10-18T00:54:25.576Z,9.20
2022-10-18T00:56:52.755Z,9.20
2022-10-18T00:59:20.480Z,9.18
2022-10-18T01:01:47.770Z,11.35
2022-10-18T01:04:16.021Z,8.75
2022-10-18T01:06:53.612Z,8.63
2022-10-18T01:09:26.284Z,11.18
2022-10-18T01:12:04.341Z,8.60
2022-10-18T01:15:03.871Z,8.48
2022-10-18T01:17:39.300Z,8.20
2022-10-18T01:20:19.740Z,10.38
2022-10-18T01:22:59.290Z,9.55
2022-10-18T01:25:42.996Z,9.48
2022-10-18T01:28:28.372Z,7.45
2022-10-18T01:30:55.524Z,10.45
2022-10-18T01:33:39.404Z,8.93
2022-10-18T01:36:15.149Z,9.05
2022-10-18T01:41:13.299Z,8.63
2022-10-18T01:43:44.112Z,7.88
2022-10-18T01:46:12.475Z,8.65
2022-10-18T01:48:40.066Z,7.75
2022-10-18T01:51:07.265Z,7.50
2022-10-18T01:53:35.674Z,9.00
2022-10-18T01:56:23.152Z,7.95
2022-10-18T01:58:50.303Z,10.82
2022-10-18T02:01:25.481Z,9.75
2022-10-18T02:03:57.134Z,8.73
2022-10-18T02:06:27.929Z,7.20
2022-10-18T02:08:58.610Z,8.00
2022-10-18T02:11:27.337Z,7.35
2022-10-18T02:14:06.639Z,7.97
2022-10-18T02:16:39.752Z,7.03
2022-10-18T02:19:14.612Z,7.13
2022-10-18T02:21:42.915Z,7.17
2022-10-18T02:24:10.883Z,7.15
2022-10-18T02:26:38.143Z,7.15
2022-10-18T02:29:05.416Z,10.02
2022-10-18T02:31:37.124Z,7.82
2022-10-18T02:34:10.482Z,7.35
2022-10-18T02:36:45.006Z,7.85
2022-10-18T02:39:32.380Z,7.15
2022-10-18T02:41:59.888Z,11.90
2022-10-18T02:44:27.169Z,8.13
2022-10-18T02:46:54.439Z,8.48
2022-10-18T02:49:21.639Z,7.53
2022-10-18T02:51:48.803Z,7.45
2022-10-18T02:54:15.919Z,7.68
2022-10-18T02:56:43.056Z,7.60
2022-10-18T02:59:10.244Z,7.47
2022-10-18T03:01:37.430Z,7.90
2022-10-18T03:04:05.274Z,9.73
2022-10-18T03:06:33.035Z,7.97
2022-10-18T03:09:00.288Z,7.90
2022-10-18T03:11:27.443Z,7.90
2022-10-18T03:13:54.637Z,7.75
2022-10-18T03:16:21.836Z,7.78
2022-10-18T03:18:48.978Z,7.20
2022-10-18T03:21:16.145Z,7.43
2022-10-18T03:23:43.695Z,7.03
2022-10-18T03:26:10.832Z,7.20
2022-10-18T03:28:38.049Z,7.03
2022-10-18T03:31:05.645Z,7.75
2022-10-18T03:33:33.185Z,7.30
2022-10-18T03:36:00.498Z,7.68
2022-10-18T03:38:27.724Z,6.95
2022-10-18T03:40:54.961Z,6.75
2022-10-18T03:43:22.612Z,6.90
2022-10-18T03:45:49.734Z,9.73
2022-10-18T03:48:16.884Z,7.85
2022-10-18T03:50:44.661Z,7.05
2022-10-18T03:53:11.838Z,7.22
2022-10-18T03:55:39.181Z,8.02
2022-10-18T03:58:06.379Z,7.22
2022-10-18T04:00:33.983Z,7.10
2022-10-18T04:03:01.351Z,7.68
2022-10-18T04:05:30.796Z,9.13
2022-10-18T04:07:58.359Z,6.88
2022-10-18T04:10:25.643Z,8.68
2022-10-18T04:12:52.854Z,7.20
2022-10-18T04:15:20.046Z,7.25
2022-10-18T04:17:47.587Z,14.27
2022-10-18T04:20:14.781Z,7.63
2022-10-18T04:22:42.042Z,7.00
2022-10-18T04:25:09.334Z,7.45
2022-10-18T04:27:36.760Z,7.60
2022-10-18T04:30:04.070Z,6.93
2022-10-18T04:32:31.254Z,6.95
2022-10-18T04:34:58.604Z,6.80
2022-10-18T04:37:25.719Z,7.72
2022-10-18T04:39:53.808Z,6.72
2022-10-18T04:42:21.779Z,6.60
2022-10-18T04:44:48.949Z,6.35
2022-10-18T04:47:16.188Z,9.98
2022-10-18T04:49:44.112Z,6.90
2022-10-18T04:52:11.300Z,7.10
2022-10-18T04:54:38.538Z,7.20
2022-10-18T04:57:05.725Z,6.65
2022-10-18T04:59:32.876Z,7.20
2022-10-18T05:02:00.213Z,6.68
2022-10-18T05:04:27.571Z,8.52
2022-10-18T05:06:54.733Z,8.60
2022-10-18T05:09:24.564Z,7.20
2022-10-18T05:11:51.852Z,10.93
2022-10-18T05:14:19.071Z,13.57
2022-10-18T05:16:46.487Z,11.43
2022-10-18T05:19:13.609Z,8.30
2022-10-18T05:21:40.847Z,8.90
2022-10-18T05:24:08.092Z,12.38
2022-10-18T05:26:35.300Z,11.82
2022-10-18T05:29:02.653Z,10.48
2022-10-18T05:31:30.100Z,11.98
2022-10-18T05:33:57.328Z,11.43
2022-10-18T05:36:26.178Z,12.35
2022-10-18T05:38:54.009Z,11.38
2022-10-18T05:41:21.288Z,10.40
2022-10-18T05:43:48.460Z,14.73
2022-10-18T05:46:15.950Z,8.80
2022-10-18T05:48:44.369Z,9.80
2022-10-18T05:51:11.824Z,9.75
2022-10-18T05:53:38.934Z,16.40
2022-10-18T05:56:06.973Z,11.07
2022-10-18T05:58:34.586Z,8.52
2022-10-18T06:01:02.407Z,12.05
2022-10-18T06:03:30.869Z,13.07
2022-10-18T06:06:02.010Z,9.77
2022-10-18T06:08:29.279Z,12.00
2022-10-18T06:10:56.693Z,14.00
2022-10-18T06:13:23.913Z,8.68
2022-10-18T06:15:51.269Z,10.88
2022-10-18T06:18:18.460Z,14.55
2022-10-18T06:20:45.614Z,12.82
2022-10-18T06:23:12.947Z,12.52
2022-10-18T06:25:40.118Z,12.55
2022-10-18T06:28:10.181Z,12.20
2022-10-18T06:30:39.240Z,12.90
2022-10-18T06:33:06.433Z,13.73
2022-10-18T06:35:33.661Z,10.48
2022-10-18T06:38:00.850Z,12.48
2022-10-18T06:40:28.005Z,10.23
2022-10-18T06:43:00.289Z,14.98
2022-10-18T06:45:33.510Z,15.38
2022-10-18T06:48:00.933Z,13.75
2022-10-18T06:50:28.130Z,13.25
2022-10-18T06:52:55.280Z,14.15
2022-10-18T06:55:22.462Z,12.55
2022-10-18T06:57:49.722Z,14.52
2022-10-18T07:00:16.922Z,10.70
2022-10-18T07:02:44.085Z,12.23
2022-10-18T07:05:11.841Z,11.00
2022-10-18T07:07:39.481Z,15.70
2022-10-18T07:10:09.236Z,16.85
2022-10-18T07:12:36.497Z,14.43
2022-10-18T07:15:08.985Z,13.38
2022-10-18T07:17:36.552Z,12.38
2022-10-18T07:20:04.343Z,14.48
2022-10-18T07:22:31.557Z,13.05
2022-10-18T07:24:58.898Z,14.52
2022-10-18T07:27:26.143Z,12.52
2022-10-18T07:29:53.310Z,10.35
2022-10-18T07:32:21.060Z,10.52
2022-10-18T07:34:48.280Z,16.25
2022-10-18T07:37:15.457Z,12.50
2022-10-18T07:39:43.110Z,11.57
2022-10-18T07:42:10.237Z,10.77
2022-10-18T07:44:37.459Z,12.77
2022-10-18T07:47:04.573Z,15.43
2022-10-18T07:49:31.806Z,11.45
2022-10-18T07:51:58.948Z,10.07
2022-10-18T07:54:26.107Z,15.30
2022-10-18T07:56:53.356Z,16.13
2022-10-18T07:59:20.509Z,12.65
2022-10-18T08:01:47.723Z,11.95
2022-10-18T08:04:16.518Z,13.35
2022-10-18T08:06:43.889Z,10.90
2022-10-18T08:09:11.009Z,12.25
2022-10-18T08:11:38.309Z,9.10
2022-10-18T08:14:05.465Z,12.32
2022-10-18T08:19:04.736Z,11.43
2022-10-18T08:21:31.931Z,11.63
2022-10-18T08:23:59.092Z,11.82
2022-10-18T08:26:26.253Z,13.20
2022-10-18T08:28:54.376Z,12.18
2022-10-18T08:31:31.033Z,12.18
2022-10-18T08:33:58.480Z,19.27
2022-10-18T08:36:25.654Z,12.32
2022-10-18T08:38:52.924Z,16.75
2022-10-18T08:41:38.359Z,15.13
2022-10-18T08:44:08.695Z,11.73
2022-10-18T08:46:37.500Z,10.57
2022-10-18T08:49:05.111Z,12.00
2022-10-18T08:51:36.278Z,11.77
2022-10-18T08:54:36.018Z,11.70
2022-10-18T08:57:04.077Z,12.13
2022-10-18T08:59:41.305Z,12.52
2022-10-18T09:02:11.457Z,10.27
2022-10-18T09:04:58.923Z,11.88
2022-10-18T09:07:29.209Z,11.00
2022-10-18T09:10:14.542Z,17.35
2022-10-18T09:12:52.145Z,12.83
2022-10-18T09:15:25.297Z,14.27
2022-10-18T09:17:55.488Z,12.70
2022-10-18T09:20:25.581Z,17.33
2022-10-18T09:23:28.252Z,13.93
2022-10-18T09:25:59.536Z,16.92
2022-10-18T09:28:30.593Z,17.83
2022-10-18T09:31:00.727Z,13.82
2022-10-18T09:33:40.160Z,16.13
2022-10-18T09:36:09.697Z,14.40
2022-10-18T09:38:50.289Z,14.85
2022-10-18T09:41:20.193Z,15.07
2022-10-18T09:43:56.421Z,14.90
2022-10-18T09:46:25.855Z,14.10
2022-10-18T09:49:11.708Z,12.20
2022-10-18T09:51:42.231Z,21.13
2022-10-18T09:54:21.789Z,20.33
2022-10-18T09:56:57.976Z,21.95
2022-10-18T09:59:25.233Z,25.42
2022-10-18T10:01:52.391Z,23.48
2022-10-18T10:04:19.541Z,17.15
2022-10-18T10:06:51.362Z,19.40
2022-10-18T10:09:19.125Z,21.30
2022-10-18T10:11:50.830Z,19.42
2022-10-18T10:14:18.040Z,25.80
2022-10-18T10:16:58.961Z,27.63
2022-10-18T10:19:31.324Z,34.78
2022-10-18T10:22:00.646Z,31.58
2022-10-18T10:24:33.613Z,32.20
2022-10-18T10:27:05.780Z,28.27
2022-10-18T10:29:48.713Z,27.85
2022-10-18T10:32:17.382Z,29.50
2022-10-18T10:34:45.523Z,26.60
2022-10-18T10:37:45.214Z,27.25
2022-10-18T10:40:19.212Z,28.80
2022-10-18T10:43:04.319Z,27.33
2022-10-18T10:45:59.324Z,28.70
2022-10-18T10:51:02.868Z,29.13
2022-10-18T10:53:40.876Z,26.63
2022-10-18T10:56:16.036Z,32.72
2022-10-18T10:58:43.636Z,26.20
2022-10-18T11:01:19.786Z,27.70
2022-10-18T11:03:51.303Z,25.15
2022-10-18T11:06:37.367Z,34.78
2022-10-18T11:09:06.889Z,25.98
2022-10-18T11:11:40.471Z,23.50
2022-10-18T11:14:26.231Z,26.90
2022-10-18T11:17:12.793Z,23.30
2022-10-18T11:19:52.250Z,26.95
2022-10-18T11:22:20.638Z,23.17
2022-10-18T11:24:48.767Z,22.77
2022-10-18T11:27:22.039Z,25.80
2022-10-18T11:30:07.839Z,22.67
2022-10-18T11:32:40.505Z,23.67
2022-10-18T11:35:13.057Z,21.98
2022-10-18T11:37:43.487Z,21.08
2022-10-18T11:40:13.784Z,22.92
2022-10-18T11:42:48.173Z,20.65
2022-10-18T11:45:27.805Z,25.85
2022-10-18T11:48:04.214Z,21.60
2022-10-18T11:50:35.608Z,19.80
2022-10-18T11:53:02.762Z,25.23
2022-10-18T11:55:38.319Z,21.67
2022-10-18T11:58:20.556Z,20.27
2022-10-18T12:00:50.825Z,21.25
2022-10-18T12:03:23.895Z,19.35
2022-10-18T12:05:51.864Z,19.90
2022-10-18T12:08:18.979Z,20.95
2022-10-18T12:11:05.029Z,19.27
2022-10-18T12:13:45.320Z,21.08
2022-10-18T12:16:12.898Z,18.50
2022-10-18T12:18:47.818Z,19.05
2022-10-18T12:21:15.052Z,17.52
2022-10-18T12:23:46.661Z,17.42
2022-10-18T12:26:14.101Z,18.20
2022-10-18T12:28:44.311Z,19.40
2022-10-18T12:31:31.073Z,17.15
2022-10-18T12:34:00.638Z,17.58
2022-10-18T12:36:46.551Z,16.70
2022-10-18T12:39:27.289Z,16.92
2022-10-18T12:42:04.929Z,17.30
2022-10-18T12:44:35.659Z,14.85
2022-10-18T12:47:04.150Z,17.50
2022-10-18T12:49:32.928Z,16.42
2022-10-18T12:52:01.705Z,17.35
2022-10-18T12:54:31.108Z,17.48
2022-10-18T12:56:59.733Z,18.10
2022-10-18T12:59:26.952Z,18.23
2022-10-18T13:01:54.126Z,19.77
2022-10-18T13:04:33.684Z,20.33
2022-10-18T13:07:08.244Z,27.45
2022-10-18T13:09:36.662Z,23.77
2022-10-18T13:12:09.932Z,25.40
2022-10-18T13:15:12.512Z,25.48
2022-10-18T13:17:54.939Z,22.02
2022-10-18T13:20:28.700Z,19.20
2022-10-18T13:23:20.048Z,17.70
2022-10-18T13:25:54.268Z,20.58
2022-10-18T13:28:21.368Z,16.73
2022-10-18T13:31:11.518Z,16.08
2022-10-18T13:33:39.799Z,15.30
2022-10-18T13:36:22.987Z,15.55
2022-10-18T13:38:51.041Z,15.93
2022-10-18T13:41:18.249Z,18.30
2022-10-18T13:43:54.392Z,17.83
2022-10-18T13:46:22.096Z,17.45
2022-10-18T13:48:50.755Z,16.77
2022-10-18T13:51:26.769Z,16.85
2022-10-18T13:54:17.237Z,15.05
2022-10-18T13:56:59.693Z,16.48
2022-10-18T13:59:33.589Z,17.30
2022-10-18T14:02:09.609Z,15.75
2022-10-18T14:04:36.810Z,15.43
2022-10-18T14:07:05.755Z,18.45
2022-10-18T14:09:44.933Z,18.38
2022-10-18T14:12:17.719Z,22.98
2022-10-18T14:14:46.866Z,22.77
2022-10-18T14:17:24.541Z,22.70
2022-10-18T14:19:55.160Z,21.00
2022-10-18T14:22:43.787Z,23.85
2022-10-18T14:25:26.907Z,24.45
2022-10-18T14:28:13.020Z,23.77
2022-10-18T14:30:55.101Z,23.88
2022-10-18T14:33:32.410Z,21.60
2022-10-18T14:36:00.837Z,27.55
2022-10-18T14:38:28.111Z,24.65
2022-10-18T14:41:05.983Z,24.25
2022-10-18T14:43:33.187Z,21.67
2022-10-18T14:46:17.641Z,23.88
2022-10-18T14:48:52.513Z,24.80
2022-10-18T14:51:19.976Z,23.80
2022-10-18T14:53:48.079Z,22.63
2022-10-18T14:56:30.070Z,22.27
2022-10-18T14:59:07.837Z,19.70
2022-10-18T15:01:36.336Z,22.23
2022-10-18T15:04:06.340Z,20.85
2022-10-18T15:06:33.929Z,22.40
2022-10-18T15:09:04.202Z,20.00
2022-10-18T15:11:31.937Z,20.85
2022-10-18T15:14:02.940Z,21.67
2022-10-18T15:16:31.448Z,20.83
2022-10-18T15:19:03.294Z,20.23
2022-10-18T15:21:30.534Z,20.83
2022-10-18T15:24:17.649Z,19.13
2022-10-18T15:26:45.414Z,19.65
2022-10-18T15:29:17.866Z,20.25
2022-10-18T15:31:45.207Z,18.15
2022-10-18T15:34:17.184Z,18.80
2022-10-18T15:39:25.824Z,21.65
2022-10-18T15:41:57.325Z,20.02
2022-10-18T15:44:24.425Z,19.92
2022-10-18T15:46:53.366Z,19.23
2022-10-18T15:49:33.964Z,19.50
2022-10-18T15:52:11.674Z,21.48
2022-10-18T15:54:39.226Z,18.20
2022-10-18T15:57:12.464Z,20.70
2022-10-18T15:59:49.961Z,22.33
2022-10-18T16:02:17.302Z,22.17
2022-10-18T16:04:45.968Z,21.52
2022-10-18T16:07:13.138Z,21.13
2022-10-18T16:09:40.499Z,19.65
2022-10-18T16:12:07.777Z,21.20
2022-10-18T16:14:36.322Z,23.42
2022-10-18T16:17:05.372Z,19.52
2022-10-18T16:19:32.846Z,21.80
2022-10-18T16:22:06.134Z,21.02
2022-10-18T16:24:33.892Z,20.73
2022-10-18T16:27:01.037Z,21.15
2022-10-18T16:29:32.038Z,22.48
2022-10-18T16:31:59.900Z,17.80
2022-10-18T16:34:27.507Z,20.98
2022-10-18T16:36:55.063Z,20.30
2022-10-18T16:39:22.705Z,20.58
2022-10-18T16:41:51.436Z,22.95
2022-10-18T16:44:19.269Z,20.58
2022-10-18T16:46:47.635Z,26.52
2022-10-18T16:51:47.051Z,17.60
2022-10-18T16:54:14.243Z,21.02
2022-10-18T16:56:41.444Z,21.70
2022-10-18T16:59:11.270Z,19.95
2022-10-18T17:01:38.461Z,22.33
2022-10-18T17:04:05.716Z,21.17
2022-10-18T17:06:33.710Z,23.60
2022-10-18T17:09:01.392Z,22.35
2022-10-18T17:11:29.212Z,20.80
2022-10-18T17:13:56.465Z,17.17
2022-10-18T17:19:02.461Z,21.40
2022-10-18T17:21:30.096Z,21.45
2022-10-18T17:24:06.089Z,22.92
2022-10-18T17:26:33.805Z,26.30
2022-10-18T17:29:06.290Z,26.33
2022-10-18T17:31:33.923Z,22.02
2022-10-18T17:34:01.955Z,22.33
2022-10-18T17:36:29.717Z,20.45
2022-10-18T17:38:56.972Z,20.40
2022-10-18T17:41:24.240Z,26.80
2022-10-18T17:43:51.391Z,20.45
2022-10-18T17:46:19.394Z,17.67
2022-10-18T17:48:46.561Z,20.02
2022-10-18T17:51:15.401Z,25.17
2022-10-18T17:53:52.843Z,26.17
2022-10-18T17:56:20.257Z,22.65
2022-10-18T17:58:50.615Z,20.15
2022-10-18T18:01:18.957Z,23.52
2022-10-18T18:03:47.794Z,16.98
2022-10-18T18:06:19.627Z,16.77
2022-10-18T18:08:47.657Z,19.13
2022-10-18T18:11:15.062Z,16.05
2022-10-18T18:13:42.613Z,17.17
2022-10-18T18:16:10.849Z,18.35
2022-10-18T18:18:38.246Z,17.25
2022-10-18T18:21:05.424Z,21.75
2022-10-18T18:23:32.714Z,25.42
2022-10-18T18:26:00.348Z,29.88
2022-10-18T18:28:27.633Z,51.60
2022-10-18T18:30:54.848Z,59.38
2022-10-18T18:33:22.122Z,90.13
2022-10-18T18:35:56.499Z,88.30
2022-10-18T18:38:24.119Z,74.75
2022-10-18T18:40:51.357Z,50.78
2022-10-18T18:43:23.158Z,39.58
2022-10-18T18:45:52.001Z,29.23
2022-10-18T18:48:20.617Z,32.15
2022-10-18T18:50:51.842Z,33.40
2022-10-18T18:53:19.668Z,37.95
2022-10-18T18:55:47.737Z,30.75
2022-10-18T18:58:14.913Z,29.95
2022-10-18T19:00:44.404Z,27.60
2022-10-18T19:03:12.498Z,35.92
2022-10-18T19:05:39.709Z,34.80
2022-10-18T19:08:07.036Z,37.20
2022-10-18T19:10:34.221Z,35.95
2022-10-18T19:13:01.363Z,35.45
2022-10-18T19:15:28.546Z,32.85
2022-10-18T19:17:56.203Z,27.75
2022-10-18T19:20:23.495Z,33.67
2022-10-18T19:22:50.686Z,26.20
2022-10-18T19:25:17.833Z,28.02
2022-10-18T19:27:45.081Z,26.42
2022-10-18T19:30:12.511Z,26.52
2022-10-18T19:32:39.668Z,30.88
2022-10-18T19:35:06.932Z,25.42
2022-10-18T19:37:34.229Z,29.65
2022-10-18T19:40:01.566Z,29.23
2022-10-18T19:42:31.195Z,94.75
2022-10-18T19:44:58.877Z,87.93
2022-10-18T19:47:26.008Z,116.13
2022-10-18T19:49:53.774Z,117.15
2022-10-18T19:52:20.965Z,89.95
2022-10-18T19:54:49.099Z,89.22
2022-10-18T19:57:16.324Z,84.78
2022-10-18T19:59:43.535Z,73.40
2022-10-18T20:02:14.205Z,71.30
2022-10-18T20:04:41.457Z,72.43
2022-10-18T20:07:08.671Z,114.60
2022-10-18T20:09:36.495Z,128.38
2022-10-18T20:12:03.733Z,134.05
2022-10-18T20:14:31.009Z,127.80
2022-10-18T20:16:58.244Z,104.25
2022-10-18T20:19:25.400Z,102.82
2022-10-18T20:21:52.592Z,101.10
2022-10-18T20:24:19.747Z,98.57
2022-10-18T20:26:46.999Z,103.05
2022-10-18T20:29:14.439Z,99.22
2022-10-18T20:31:41.632Z,98.82
2022-10-18T20:34:11.375Z,91.28
2022-10-18T20:36:38.799Z,85.90
2022-10-18T20:39:06.790Z,90.13
2022-10-18T20:41:35.268Z,77.35
2022-10-18T20:44:03.532Z,72.68
2022-10-18T20:46:31.668Z,73.68
2022-10-18T20:48:58.795Z,117.60
2022-10-18T20:51:26.293Z,93.32
2022-10-18T20:53:53.897Z,82.80
2022-10-18T20:56:22.694Z,88.95
2022-10-18T20:58:51.364Z,93.43
2022-10-18T21:01:20.289Z,90.45
2022-10-18T21:03:48.033Z,89.18
2022-10-18T21:06:19.260Z,81.70
2022-10-18T21:08:46.676Z,88.35
2022-10-18T21:11:14.490Z,86.38
2022-10-18T21:13:41.622Z,78.97
2022-10-18T21:16:09.167Z,71.55
2022-10-18T21:18:37.576Z,72.03
2022-10-18T21:23:41.237Z,49.13
2022-10-18T21:26:09.394Z,50.20
2022-10-18T21:28:36.639Z,49.30
2022-10-18T21:31:14.593Z,40.65
2022-10-18T21:33:42.071Z,45.53
2022-10-18T21:36:09.560Z,42.70
2022-10-18T21:38:36.981Z,41.10
2022-10-18T21:41:08.925Z,40.40
2022-10-18T21:43:36.169Z,41.10
2022-10-18T21:46:03.390Z,47.88
2022-10-18T21:48:30.648Z,47.45
2022-10-18T21:51:02.408Z,48.45
2022-10-18T21:53:29.560Z,48.20
2022-10-18T21:55:56.727Z,49.13
2022-10-18T21:58:24.034Z,52.17
2022-10-18T22:00:51.359Z,48.67
2022-10-18T22:03:18.584Z,45.97
2022-10-18T22:05:45.758Z,43.78
2022-10-18T22:08:12.899Z,48.45
2022-10-18T22:10:40.081Z,44.03
2022-10-18T22:13:07.253Z,46.33
2022-10-18T22:15:34.368Z,44.33
2022-10-18T22:18:01.483Z,37.80
2022-10-18T22:20:28.719Z,41.13
2022-10-18T22:22:55.924Z,39.60
2022-10-18T22:25:23.138Z,42.70
2022-10-18T22:27:50.271Z,37.97
2022-10-18T22:30:17.551Z,37.85
2022-10-18T22:32:44.724Z,38.50
2022-10-18T22:35:11.921Z,38.88
2022-10-18T22:37:39.051Z,39.28
2022-10-18T22:40:06.482Z,39.13
2022-10-18T22:45:01.783Z,38.03
2022-10-18T22:47:28.948Z,36.08
2022-10-18T22:49:56.062Z,37.38
2022-10-18T22:52:23.418Z,37.47
2022-10-18T22:54:50.547Z,37.05
2022-10-18T22:57:17.697Z,36.00
2022-10-18T22:59:45.507Z,37.15
2022-10-18T23:02:12.870Z,38.60
2022-10-18T23:04:40.040Z,35.67
2022-10-18T23:07:07.187Z,35.45
2022-10-18T23:09:34.482Z,35.95
2022-10-18T23:12:01.640Z,34.92
2022-10-18T23:14:28.786Z,35.22
2022-10-18T23:16:55.948Z,35.92
2022-10-18T23:19:23.071Z,35.30
2022-10-18T23:21:50.245Z,36.53
2022-10-18T23:24:17.388Z,33.50
2022-10-18T23:26:44.584Z,34.30
2022-10-18T23:29:11.740Z,37.45
2022-10-18T23:31:39.456Z,33.97
2022-10-18T23:34:06.692Z,34.05
2022-10-18T23:36:34.181Z,34.47
2022-10-18T23:39:01.813Z,33.47
2022-10-18T23:41:28.961Z,33.50
2022-10-18T23:43:56.210Z,33.55
2022-10-18T23:46:23.387Z,32.40
2022-10-18T23:48:50.769Z,32.28
2022-10-18T23:51:18.255Z,33.25
2022-10-18T23:53:45.475Z,32.83
2022-10-18T23:56:14.228Z,32.33
2022-10-18T23:58:42.080Z,32.55
